createdAt,value
2023-05-08T00:00:55.822Z,94958.00
2023-05-08T00:01:55.844Z,94962.00
2023-05-08T00:02:55.908Z,94962.00
2023-05-08T00:03:56.084Z,94960.00
2023-05-08T00:04:56.015Z,94960.00
2023-05-08T00:05:55.980Z,94958.00
2023-05-08T00:06:55.917Z,94960.00
2023-05-08T00:07:55.950Z,94964.00
2023-05-08T00:08:56.045Z,94962.00
2023-05-08T00:09:56.046Z,94958.00
2023-05-08T00:10:56.154Z,94962.00
2023-05-08T00:11:56.245Z,94960.00
2023-05-08T00:12:56.224Z,94960.00
2023-05-08T00:13:56.263Z,94956.00
2023-05-08T00:14:56.343Z,94958.00
2023-05-08T00:15:56.405Z,94958.00
2023-05-08T00:16:56.447Z,94956.00
2023-05-08T00:17:56.512Z,94958.00
2023-05-08T00:18:56.514Z,94960.00
2023-05-08T00:19:56.527Z,94956.00
2023-05-08T00:20:57.150Z,94956.00
2023-05-08T00:21:56.661Z,94954.00
2023-05-08T00:22:56.642Z,94958.00
2023-05-08T00:23:56.706Z,94960.00
2023-05-08T00:24:56.716Z,94960.00
2023-05-08T00:25:56.829Z,94960.00
2023-05-08T00:26:56.847Z,94962.00
2023-05-08T00:27:56.884Z,94958.00
2023-05-08T00:28:56.995Z,94958.00
2023-05-08T00:29:57.123Z,94952.00
2023-05-08T00:30:57.050Z,94950.00
2023-05-08T00:31:57.134Z,94948.00
2023-05-08T00:32:57.223Z,94952.00
2023-05-08T00:33:57.134Z,94950.00
2023-05-08T00:34:57.249Z,94948.00
2023-05-08T00:35:57.294Z,94952.00
2023-05-08T00:36:57.294Z,94950.00
2023-05-08T00:37:57.362Z,94950.00
2023-05-08T00:38:57.341Z,94956.00
2023-05-08T00:39:57.433Z,94954.00
2023-05-08T00:40:57.434Z,94956.00
2023-05-08T00:41:57.478Z,94958.00
2023-05-08T00:42:57.518Z,94956.00
2023-05-08T00:43:57.540Z,94956.00
2023-05-08T00:44:57.596Z,94956.00
2023-05-08T00:45:57.626Z,94956.00
2023-05-08T00:46:57.636Z,94958.00
2023-05-08T00:47:57.685Z,94958.00
2023-05-08T00:48:57.689Z,94962.00
2023-05-08T00:49:57.709Z,94964.00
2023-05-08T00:50:57.683Z,94960.00
2023-05-08T00:51:57.720Z,94962.00
2023-05-08T00:52:57.710Z,94962.00
2023-05-08T00:53:57.795Z,94964.00
2023-05-08T00:54:57.936Z,94966.00
2023-05-08T00:55:57.879Z,94968.00
2023-05-08T00:56:57.996Z,94966.00
2023-05-08T00:57:57.957Z,94968.00
2023-05-08T00:58:58.025Z,94966.00
2023-05-08T00:59:58.063Z,94966.00
2023-05-08T01:00:58.064Z,94970.00
2023-05-08T01:01:58.141Z,94968.00
2023-05-08T01:02:58.157Z,94970.00
2023-05-08T01:03:58.181Z,94970.00
2023-05-08T01:04:58.287Z,94966.00
2023-05-08T01:06:00.225Z,94970.00
2023-05-08T01:06:58.275Z,94970.00
2023-05-08T01:07:58.304Z,94966.00
2023-05-08T01:08:58.317Z,94970.00
2023-05-08T01:09:58.320Z,94970.00
2023-05-08T01:10:58.392Z,94970.00
2023-05-08T01:11:58.436Z,94972.00
2023-05-08T01:12:58.488Z,94972.00
2023-05-08T01:13:58.558Z,94970.00
2023-05-08T01:14:58.527Z,94974.00
2023-05-08T01:15:59.172Z,94972.00
2023-05-08T01:16:58.617Z,94972.00
2023-05-08T01:17:58.636Z,94974.00
2023-05-08T01:18:58.598Z,94972.00
2023-05-08T01:19:58.664Z,94974.00
2023-05-08T01:20:58.674Z,94974.00
2023-05-08T01:21:58.712Z,94972.00
2023-05-08T01:22:58.736Z,94978.00
2023-05-08T01:23:58.775Z,94976.00
2023-05-08T01:24:58.809Z,94976.00
2023-05-08T01:25:58.897Z,94978.00
2023-05-08T01:26:58.914Z,94978.00
2023-05-08T01:27:58.847Z,94978.00
2023-05-08T01:28:58.918Z,94978.00
2023-05-08T01:29:58.922Z,94978.00
2023-05-08T01:30:58.944Z,94980.00
2023-05-08T01:31:58.988Z,94982.00
2023-05-08T01:32:59.083Z,94984.00
2023-05-08T01:33:59.128Z,94982.00
2023-05-08T01:34:59.120Z,94986.00
2023-05-08T01:35:59.138Z,94984.00
2023-05-08T01:36:59.668Z,94986.00
2023-05-08T01:37:59.246Z,94986.00
2023-05-08T01:38:59.259Z,94987.00
2023-05-08T01:39:59.331Z,94986.00
2023-05-08T01:40:59.283Z,94987.00
2023-05-08T01:41:59.310Z,94987.00
2023-05-08T01:42:59.373Z,94989.00
2023-05-08T01:43:59.412Z,94987.00
2023-05-08T01:44:59.416Z,94989.00
2023-05-08T01:45:59.540Z,94989.00
2023-05-08T01:46:59.534Z,94989.00
2023-05-08T01:47:59.629Z,94989.00
2023-05-08T01:49:00.178Z,94991.00
2023-05-08T01:49:59.580Z,94991.00
2023-05-08T01:50:59.570Z,94991.00
2023-05-08T01:51:59.589Z,94991.00
2023-05-08T01:52:59.621Z,94993.00
2023-05-08T01:53:59.674Z,94991.00
2023-05-08T01:54:59.707Z,94991.00
2023-05-08T01:55:59.716Z,94993.00
2023-05-08T01:56:59.752Z,94995.00
2023-05-08T01:57:59.775Z,94993.00
2023-05-08T01:58:59.782Z,94993.00
2023-05-08T01:59:59.826Z,94991.00
2023-05-08T02:00:59.929Z,94991.00
2023-05-08T02:02:00.242Z,94989.00
2023-05-08T02:02:59.916Z,94989.00
2023-05-08T02:03:59.922Z,94987.00
2023-05-08T02:04:59.970Z,94987.00
2023-05-08T02:05:59.938Z,94989.00
2023-05-08T02:07:00.011Z,94989.00
2023-05-08T02:07:59.993Z,94989.00
2023-05-08T02:09:00.011Z,94986.00
2023-05-08T02:10:00.089Z,94987.00
2023-05-08T02:11:00.064Z,94986.00
2023-05-08T02:12:00.121Z,94986.00
2023-05-08T02:13:00.176Z,94987.00
2023-05-08T02:14:00.148Z,94984.00
2023-05-08T02:15:00.145Z,94986.00
2023-05-08T02:16:00.196Z,94982.00
2023-05-08T02:17:01.194Z,94982.00
2023-05-08T02:18:00.306Z,94986.00
2023-05-08T02:19:00.267Z,94986.00
2023-05-08T02:20:00.297Z,94984.00
2023-05-08T02:21:00.292Z,94984.00
2023-05-08T02:22:00.409Z,94984.00
2023-05-08T02:23:00.332Z,94986.00
2023-05-08T02:24:00.354Z,94987.00
2023-05-08T02:25:00.376Z,94986.00
2023-05-08T02:26:00.424Z,94986.00
2023-05-08T02:27:00.473Z,94986.00
2023-05-08T02:28:00.488Z,94987.00
2023-05-08T02:29:00.522Z,94986.00
2023-05-08T02:30:00.599Z,94986.00
2023-05-08T02:31:00.575Z,94986.00
2023-05-08T02:32:00.627Z,94986.00
2023-05-08T02:33:01.011Z,94987.00
2023-05-08T02:34:00.677Z,94987.00
2023-05-08T02:35:03.500Z,94986.00
2023-05-08T02:36:00.701Z,94987.00
2023-05-08T02:37:00.707Z,94987.00
2023-05-08T02:38:00.709Z,94984.00
2023-05-08T02:39:00.698Z,94986.00
2023-05-08T02:40:00.713Z,94986.00
2023-05-08T02:41:00.716Z,94986.00
2023-05-08T02:42:00.707Z,94986.00
2023-05-08T02:43:00.681Z,94986.00
2023-05-08T02:44:00.632Z,94986.00
2023-05-08T02:45:00.652Z,94987.00
2023-05-08T02:46:00.737Z,94987.00
2023-05-08T02:47:00.655Z,94986.00
2023-05-08T02:48:00.687Z,94986.00
2023-05-08T02:49:00.614Z,94986.00
2023-05-08T02:50:00.680Z,94987.00
2023-05-08T02:51:00.620Z,94989.00
2023-05-08T02:52:00.614Z,94987.00
2023-05-08T02:53:00.604Z,94987.00
2023-05-08T02:54:00.555Z,94986.00
2023-05-08T02:55:00.723Z,94987.00
2023-05-08T02:56:00.582Z,94987.00
2023-05-08T02:57:00.565Z,94984.00
2023-05-08T02:58:00.591Z,94986.00
2023-05-08T02:59:00.660Z,94987.00
2023-05-08T03:00:00.611Z,94987.00
2023-05-08T03:01:00.651Z,94987.00
2023-05-08T03:02:00.557Z,94986.00
2023-05-08T03:03:00.595Z,94982.00
2023-05-08T03:04:00.596Z,94982.00
2023-05-08T03:05:00.501Z,94984.00
2023-05-08T03:06:00.581Z,94982.00
2023-05-08T03:07:00.530Z,94982.00
2023-05-08T03:08:00.496Z,94980.00
2023-05-08T03:09:00.476Z,94980.00
2023-05-08T03:10:00.504Z,94976.00
2023-05-08T03:11:00.467Z,94978.00
2023-05-08T03:12:00.693Z,94976.00
2023-05-08T03:13:00.535Z,94974.00
2023-05-08T03:14:00.524Z,94974.00
2023-05-08T03:15:00.559Z,94970.00
2023-05-08T03:16:00.486Z,94970.00
2023-05-08T03:17:00.422Z,94972.00
2023-05-08T03:18:00.482Z,94974.00
2023-05-08T03:19:00.408Z,94970.00
2023-05-08T03:20:00.427Z,94972.00
2023-05-08T03:21:00.418Z,94970.00
2023-05-08T03:22:00.409Z,94970.00
2023-05-08T03:23:00.376Z,94974.00
2023-05-08T03:24:00.361Z,94970.00
2023-05-08T03:25:00.392Z,94972.00
2023-05-08T03:26:00.354Z,94970.00
2023-05-08T03:27:00.350Z,94972.00
2023-05-08T03:28:00.379Z,94968.00
2023-05-08T03:29:00.344Z,94968.00
2023-05-08T03:30:00.362Z,94966.00
2023-05-08T03:31:00.356Z,94966.00
2023-05-08T03:32:00.396Z,94966.00
2023-05-08T03:33:00.459Z,94968.00
2023-05-08T03:34:00.446Z,94964.00
2023-05-08T03:35:00.435Z,94966.00
2023-05-08T03:36:01.228Z,94966.00
2023-05-08T03:37:00.504Z,94966.00
2023-05-08T03:38:00.525Z,94968.00
2023-05-08T03:39:00.483Z,94966.00
2023-05-08T03:40:00.491Z,94972.00
2023-05-08T03:41:00.558Z,94974.00
2023-05-08T03:42:00.579Z,94974.00
2023-05-08T03:43:00.559Z,94974.00
2023-05-08T03:44:00.606Z,94980.00
2023-05-08T03:45:00.580Z,94976.00
2023-05-08T03:46:00.606Z,94978.00
2023-05-08T03:47:00.705Z,94978.00
2023-05-08T03:48:00.719Z,94978.00
2023-05-08T03:49:00.672Z,94982.00
2023-05-08T03:50:00.718Z,94980.00
2023-05-08T03:51:00.744Z,94982.00
2023-05-08T03:52:00.764Z,94986.00
2023-05-08T03:53:00.783Z,94982.00
2023-05-08T03:54:00.854Z,94987.00
2023-05-08T03:55:00.875Z,94986.00
2023-05-08T03:56:00.960Z,94984.00
2023-05-08T03:57:00.956Z,94987.00
2023-05-08T03:58:01.008Z,94989.00
2023-05-08T03:59:01.075Z,94987.00
2023-05-08T04:00:01.186Z,94991.00
2023-05-08T04:01:01.142Z,94991.00
2023-05-08T04:02:01.266Z,94991.00
2023-05-08T04:03:01.262Z,94991.00
2023-05-08T04:04:01.194Z,94993.00
2023-05-08T04:05:01.137Z,94993.00
2023-05-08T04:06:01.245Z,94993.00
2023-05-08T04:07:01.215Z,94993.00
2023-05-08T04:08:01.267Z,94997.00
2023-05-08T04:09:01.360Z,94997.00
2023-05-08T04:10:01.377Z,94995.00
2023-05-08T04:11:01.436Z,94999.00
2023-05-08T04:12:01.483Z,94999.00
2023-05-08T04:13:01.612Z,94997.00
2023-05-08T04:14:01.540Z,94997.00
2023-05-08T04:15:01.642Z,95003.00
2023-05-08T04:16:01.678Z,95003.00
2023-05-08T04:17:01.785Z,95003.00
2023-05-08T04:18:01.805Z,95003.00
2023-05-08T04:19:01.785Z,95003.00
2023-05-08T04:20:01.894Z,95007.00
2023-05-08T04:21:01.884Z,95009.00
2023-05-08T04:22:01.961Z,95007.00
2023-05-08T04:23:01.966Z,95011.00
2023-05-08T04:24:02.039Z,95011.00
2023-05-08T04:25:02.060Z,95013.00
2023-05-08T04:26:03.657Z,95013.00
2023-05-08T04:27:02.042Z,95015.00
2023-05-08T04:28:02.009Z,95015.00
2023-05-08T04:29:02.037Z,95013.00
2023-05-08T04:30:02.010Z,95015.00
2023-05-08T04:31:02.005Z,95015.00
2023-05-08T04:32:02.113Z,95017.00
2023-05-08T04:33:02.069Z,95017.00
2023-05-08T04:34:01.976Z,95015.00
2023-05-08T04:35:02.249Z,95017.00
2023-05-08T04:36:01.987Z,95019.00
2023-05-08T04:37:02.024Z,95017.00
2023-05-08T04:38:01.954Z,95021.00
2023-05-08T04:39:01.958Z,95021.00
2023-05-08T04:40:01.972Z,95027.00
2023-05-08T04:41:01.980Z,95025.00
2023-05-08T04:42:01.961Z,95027.00
2023-05-08T04:43:01.933Z,95027.00
2023-05-08T04:44:01.909Z,95031.00
2023-05-08T04:45:01.925Z,95029.00
2023-05-08T04:46:01.943Z,95029.00
2023-05-08T04:47:01.973Z,95027.00
2023-05-08T04:48:01.889Z,95029.00
2023-05-08T04:49:01.902Z,95031.00
2023-05-08T04:50:03.048Z,95029.00
2023-05-08T04:51:01.871Z,95033.00
2023-05-08T04:52:01.850Z,95033.00
2023-05-08T04:53:01.883Z,95033.00
2023-05-08T04:54:01.837Z,95033.00
2023-05-08T04:55:01.843Z,95033.00
2023-05-08T04:56:01.885Z,95034.00
2023-05-08T04:57:01.895Z,95036.00
2023-05-08T04:58:01.839Z,95036.00
2023-05-08T04:59:01.823Z,95034.00
2023-05-08T05:00:02.707Z,95038.00
2023-05-08T05:01:01.892Z,95034.00
2023-05-08T05:02:01.933Z,95038.00
2023-05-08T05:03:01.860Z,95040.00
2023-05-08T05:04:01.840Z,95038.00
2023-05-08T05:05:01.833Z,95040.00
2023-05-08T05:06:01.754Z,95040.00
2023-05-08T05:07:01.762Z,95040.00
2023-05-08T05:08:01.830Z,95040.00
2023-05-08T05:09:01.765Z,95042.00
2023-05-08T05:10:01.740Z,95042.00
2023-05-08T05:11:01.740Z,95044.00
2023-05-08T05:12:01.751Z,95046.00
2023-05-08T05:13:01.765Z,95044.00
2023-05-08T05:14:01.799Z,95046.00
2023-05-08T05:15:01.769Z,95046.00
2023-05-08T05:16:02.314Z,95050.00
2023-05-08T05:17:01.702Z,95048.00
2023-05-08T05:18:01.750Z,95050.00
2023-05-08T05:19:01.743Z,95050.00
2023-05-08T05:20:01.687Z,95048.00
2023-05-08T05:21:01.764Z,95050.00
2023-05-08T05:22:01.775Z,95054.00
2023-05-08T05:23:01.806Z,95056.00
2023-05-08T05:24:01.778Z,95056.00
2023-05-08T05:25:02.236Z,95058.00
2023-05-08T05:26:01.853Z,95062.00
2023-05-08T05:27:01.997Z,95060.00
2023-05-08T05:28:01.965Z,95062.00
2023-05-08T05:29:02.027Z,95062.00
2023-05-08T05:30:02.109Z,95060.00
2023-05-08T05:31:02.860Z,95064.00
2023-05-08T05:32:02.308Z,95064.00
2023-05-08T05:33:02.796Z,95062.00
2023-05-08T05:34:02.287Z,95062.00
2023-05-08T05:35:02.241Z,95062.00
2023-05-08T05:36:02.270Z,95062.00
2023-05-08T05:37:02.321Z,95064.00
2023-05-08T05:38:02.752Z,95064.00
2023-05-08T05:39:02.459Z,95066.00
2023-05-08T05:40:02.397Z,95064.00
2023-05-08T05:41:02.404Z,95066.00
2023-05-08T05:42:02.445Z,95066.00
2023-05-08T05:43:02.565Z,95068.00
2023-05-08T05:44:02.526Z,95066.00
2023-05-08T05:45:02.548Z,95070.00
2023-05-08T05:46:02.597Z,95070.00
2023-05-08T05:47:02.648Z,95068.00
2023-05-08T05:48:02.637Z,95072.00
2023-05-08T05:49:02.671Z,95070.00
2023-05-08T05:50:04.387Z,95076.00
2023-05-08T05:51:02.764Z,95074.00
2023-05-08T05:52:02.792Z,95076.00
2023-05-08T05:53:02.853Z,95074.00
2023-05-08T05:54:02.901Z,95074.00
2023-05-08T05:55:03.291Z,95078.00
2023-05-08T05:56:02.860Z,95076.00
2023-05-08T05:57:02.998Z,95076.00
2023-05-08T05:58:02.950Z,95078.00
2023-05-08T05:59:02.973Z,95078.00
2023-05-08T06:00:03.231Z,95074.00
2023-05-08T06:01:03.048Z,95076.00
2023-05-08T06:02:03.134Z,95076.00
2023-05-08T06:03:03.936Z,95074.00
2023-05-08T06:04:03.382Z,95074.00
2023-05-08T06:05:03.253Z,95076.00
2023-05-08T06:06:05.369Z,95078.00
2023-05-08T06:07:03.281Z,95078.00
2023-05-08T06:08:03.349Z,95080.00
2023-05-08T06:09:03.413Z,95078.00
2023-05-08T06:10:03.449Z,95080.00
2023-05-08T06:11:03.522Z,95082.00
2023-05-08T06:12:03.483Z,95084.00
2023-05-08T06:13:03.588Z,95086.00
2023-05-08T06:14:03.540Z,95086.00
2023-05-08T06:15:03.560Z,95086.00
2023-05-08T06:16:03.594Z,95086.00
2023-05-08T06:17:03.732Z,95084.00
2023-05-08T06:18:03.885Z,95088.00
2023-05-08T06:19:03.768Z,95084.00
2023-05-08T06:20:03.778Z,95088.00
2023-05-08T06:21:03.849Z,95084.00
2023-05-08T06:22:03.873Z,95088.00
2023-05-08T06:23:03.906Z,95088.00
2023-05-08T06:24:03.905Z,95084.00
2023-05-08T06:25:03.924Z,95088.00
2023-05-08T06:26:03.927Z,95091.00
2023-05-08T06:27:04.021Z,95089.00
2023-05-08T06:28:03.989Z,95091.00
2023-05-08T06:29:04.001Z,95089.00
2023-05-08T06:30:04.056Z,95093.00
2023-05-08T06:31:04.110Z,95091.00
2023-05-08T06:32:04.124Z,95089.00
2023-05-08T06:33:04.169Z,95091.00
2023-05-08T06:34:04.442Z,95093.00
2023-05-08T06:35:04.233Z,95091.00
2023-05-08T06:36:04.188Z,95091.00
2023-05-08T06:37:04.200Z,95091.00
2023-05-08T06:38:04.788Z,95091.00
2023-05-08T06:39:04.248Z,95089.00
2023-05-08T06:40:12.029Z,95095.00
2023-05-08T06:41:05.246Z,95095.00
2023-05-08T06:42:04.279Z,95095.00
2023-05-08T06:43:04.242Z,95093.00
2023-05-08T06:44:05.287Z,95095.00
2023-05-08T06:45:04.255Z,95095.00
2023-05-08T06:46:04.295Z,95095.00
2023-05-08T06:47:04.215Z,95095.00
2023-05-08T06:48:04.275Z,95095.00
2023-05-08T06:49:04.212Z,95093.00
2023-05-08T06:50:04.249Z,95093.00
2023-05-08T06:51:04.184Z,95093.00
2023-05-08T06:52:04.253Z,95093.00
2023-05-08T06:53:04.302Z,95093.00
2023-05-08T06:54:04.359Z,95093.00
2023-05-08T06:55:04.274Z,95097.00
2023-05-08T06:56:04.200Z,95095.00
2023-05-08T06:57:04.158Z,95097.00
2023-05-08T06:58:04.176Z,95099.00
2023-05-08T06:59:08.606Z,95091.00
2023-05-08T07:00:05.205Z,95095.00
2023-05-08T07:01:04.247Z,95089.00
2023-05-08T07:02:04.200Z,95091.00
2023-05-08T07:03:04.308Z,95093.00
2023-05-08T07:04:04.158Z,95093.00
2023-05-08T07:05:04.294Z,95095.00
2023-05-08T07:06:04.193Z,95097.00
2023-05-08T07:07:04.139Z,95095.00
2023-05-08T07:08:04.131Z,95095.00
2023-05-08T07:09:04.121Z,95097.00
2023-05-08T07:10:05.911Z,95097.00
2023-05-08T07:11:04.106Z,95101.00
2023-05-08T07:12:04.080Z,95101.00
2023-05-08T07:13:04.128Z,95099.00
2023-05-08T07:14:04.070Z,95099.00
2023-05-08T07:15:13.807Z,95101.00
2023-05-08T07:16:05.088Z,95099.00
2023-05-08T07:17:04.061Z,95101.00
2023-05-08T07:18:04.101Z,95101.00
2023-05-08T07:19:04.034Z,95099.00
2023-05-08T07:20:04.039Z,95105.00
2023-05-08T07:21:03.988Z,95105.00
2023-05-08T07:22:04.103Z,95105.00
2023-05-08T07:23:04.022Z,95107.00
2023-05-08T07:24:03.989Z,95105.00
2023-05-08T07:25:03.977Z,95103.00
2023-05-08T07:26:03.974Z,95103.00
2023-05-08T07:27:04.005Z,95103.00
2023-05-08T07:28:03.976Z,95103.00
2023-05-08T07:29:03.996Z,95105.00
2023-05-08T07:30:04.054Z,95107.00
2023-05-08T07:31:04.056Z,95105.00
2023-05-08T07:32:04.238Z,95105.00
2023-05-08T07:33:04.195Z,95109.00
2023-05-08T07:34:04.302Z,95109.00
2023-05-08T07:35:04.249Z,95107.00
2023-05-08T07:36:04.216Z,95105.00
2023-05-08T07:37:04.257Z,95107.00
2023-05-08T07:38:04.766Z,95107.00
2023-05-08T07:39:04.311Z,95107.00
2023-05-08T07:40:04.340Z,95103.00
2023-05-08T07:41:04.531Z,95103.00
2023-05-08T07:42:06.309Z,95107.00
2023-05-08T07:43:04.755Z,95105.00
2023-05-08T07:44:04.427Z,95105.00
2023-05-08T07:45:05.256Z,95105.00
2023-05-08T07:46:07.269Z,95105.00
2023-05-08T07:47:05.282Z,95111.00
2023-05-08T07:48:04.523Z,95111.00
2023-05-08T07:49:05.235Z,95113.00
2023-05-08T07:50:04.527Z,95113.00
2023-05-08T07:51:04.530Z,95113.00
2023-05-08T07:52:04.702Z,95117.00
2023-05-08T07:53:04.465Z,95115.00
2023-05-08T07:54:07.273Z,95115.00
2023-05-08T07:55:04.830Z,95115.00
2023-05-08T07:56:04.430Z,95113.00
2023-05-08T07:57:04.400Z,95111.00
2023-05-08T07:58:04.409Z,95111.00
2023-05-08T07:59:04.449Z,95113.00
2023-05-08T08:00:04.407Z,95113.00
2023-05-08T08:01:04.416Z,95111.00
2023-05-08T08:02:04.449Z,95111.00
2023-05-08T08:03:04.458Z,95109.00
2023-05-08T08:04:04.400Z,95113.00
2023-05-08T08:05:04.477Z,95115.00
2023-05-08T08:06:04.366Z,95109.00
2023-05-08T08:07:04.320Z,95111.00
2023-05-08T08:08:04.351Z,95109.00
2023-05-08T08:09:04.328Z,95109.00
2023-05-08T08:10:04.489Z,95109.00
2023-05-08T08:11:04.296Z,95113.00
2023-05-08T08:12:04.333Z,95111.00
2023-05-08T08:13:04.358Z,95109.00
2023-05-08T08:14:04.322Z,95109.00
2023-05-08T08:15:04.309Z,95107.00
2023-05-08T08:16:04.293Z,95111.00
2023-05-08T08:17:04.329Z,95109.00
2023-05-08T08:18:04.277Z,95111.00
2023-05-08T08:19:04.821Z,95113.00
2023-05-08T08:20:04.263Z,95113.00
2023-05-08T08:21:04.300Z,95111.00
2023-05-08T08:22:04.315Z,95113.00
2023-05-08T08:23:04.212Z,95113.00
2023-05-08T08:24:04.260Z,95113.00
2023-05-08T08:25:04.289Z,95113.00
2023-05-08T08:26:04.191Z,95115.00
2023-05-08T08:27:04.192Z,95113.00
2023-05-08T08:28:04.252Z,95115.00
2023-05-08T08:29:04.265Z,95115.00
2023-05-08T08:30:15.611Z,95115.00
2023-05-08T08:31:05.205Z,95113.00
2023-05-08T08:32:04.271Z,95111.00
2023-05-08T08:33:04.323Z,95111.00
2023-05-08T08:34:04.186Z,95111.00
2023-05-08T08:35:04.137Z,95109.00
2023-05-08T08:36:04.112Z,95111.00
2023-05-08T08:37:04.205Z,95111.00
2023-05-08T08:38:04.144Z,95111.00
2023-05-08T08:39:04.129Z,95107.00
2023-05-08T08:40:04.119Z,95111.00
2023-05-08T08:41:04.192Z,95109.00
2023-05-08T08:42:04.274Z,95107.00
2023-05-08T08:43:04.770Z,95107.00
2023-05-08T08:44:04.278Z,95107.00
2023-05-08T08:45:04.384Z,95111.00
2023-05-08T08:46:04.399Z,95103.00
2023-05-08T08:47:04.414Z,95099.00
2023-05-08T08:48:04.560Z,95099.00
2023-05-08T08:49:04.609Z,95099.00
2023-05-08T08:50:04.740Z,95101.00
2023-05-08T08:51:04.535Z,95101.00
2023-05-08T08:52:04.552Z,95099.00
2023-05-08T08:53:04.682Z,95099.00
2023-05-08T08:54:04.662Z,95101.00
2023-05-08T08:55:04.616Z,95105.00
2023-05-08T08:56:04.633Z,95105.00
2023-05-08T08:57:04.786Z,95105.00
2023-05-08T08:58:04.768Z,95101.00
2023-05-08T08:59:04.706Z,95103.00
2023-05-08T09:00:04.761Z,95105.00
2023-05-08T09:01:04.770Z,95103.00
2023-05-08T09:02:04.808Z,95101.00
2023-05-08T09:03:04.940Z,95101.00
2023-05-08T09:04:04.896Z,95101.00
2023-05-08T09:05:04.886Z,95101.00
2023-05-08T09:06:04.864Z,95103.00
2023-05-08T09:07:04.882Z,95101.00
2023-05-08T09:08:04.904Z,95103.00
2023-05-08T09:09:04.985Z,95101.00
2023-05-08T09:10:04.897Z,95097.00
2023-05-08T09:11:05.309Z,95099.00
2023-05-08T09:12:05.814Z,95101.00
2023-05-08T09:13:05.025Z,95099.00
2023-05-08T09:14:04.951Z,95099.00
2023-05-08T09:15:05.065Z,95097.00
2023-05-08T09:16:05.000Z,95097.00
2023-05-08T09:17:04.966Z,95097.00
2023-05-08T09:18:05.127Z,95099.00
2023-05-08T09:19:05.105Z,95095.00
2023-05-08T09:20:05.096Z,95095.00
2023-05-08T09:21:05.136Z,95097.00
2023-05-08T09:22:05.286Z,95097.00
2023-05-08T09:23:05.265Z,95097.00
2023-05-08T09:24:05.324Z,95099.00
2023-05-08T09:25:05.415Z,95097.00
2023-05-08T09:26:05.400Z,95095.00
2023-05-08T09:27:05.451Z,95097.00
2023-05-08T09:28:05.526Z,95097.00
2023-05-08T09:29:05.529Z,95095.00
2023-05-08T09:30:05.597Z,95097.00
2023-05-08T09:31:05.631Z,95097.00
2023-05-08T09:32:05.771Z,95099.00
2023-05-08T09:33:05.972Z,95095.00
2023-05-08T09:34:05.784Z,95095.00
2023-05-08T09:35:05.882Z,95095.00
2023-05-08T09:36:06.265Z,95095.00
2023-05-08T09:37:06.048Z,95097.00
2023-05-08T09:38:05.953Z,95095.00
2023-05-08T09:39:06.058Z,95095.00
2023-05-08T09:40:06.864Z,95097.00
2023-05-08T09:41:06.208Z,95097.00
2023-05-08T09:42:06.140Z,95101.00
2023-05-08T09:43:06.398Z,95103.00
2023-05-08T09:44:06.803Z,95101.00
2023-05-08T09:45:06.197Z,95099.00
2023-05-08T09:46:06.220Z,95101.00
2023-05-08T09:47:06.206Z,95101.00
2023-05-08T09:48:06.258Z,95099.00
2023-05-08T09:49:06.248Z,95101.00
2023-05-08T09:50:06.339Z,95099.00
2023-05-08T09:51:06.415Z,95099.00
2023-05-08T09:52:08.512Z,95101.00
2023-05-08T09:53:06.794Z,95101.00
2023-05-08T09:54:08.324Z,95099.00
2023-05-08T09:55:06.756Z,95101.00
2023-05-08T09:56:09.397Z,95103.00
2023-05-08T09:57:06.632Z,95105.00
2023-05-08T09:58:06.796Z,95101.00
2023-05-08T09:59:06.663Z,95103.00
2023-05-08T10:00:06.654Z,95107.00
2023-05-08T10:01:06.661Z,95103.00
2023-05-08T10:02:07.314Z,95103.00
2023-05-08T10:03:06.660Z,95105.00
2023-05-08T10:04:06.772Z,95105.00
2023-05-08T10:05:06.647Z,95101.00
2023-05-08T10:06:06.575Z,95101.00
2023-05-08T10:07:06.556Z,95101.00
2023-05-08T10:08:06.535Z,95099.00
2023-05-08T10:09:06.550Z,95099.00
2023-05-08T10:10:06.721Z,95099.00
2023-05-08T10:11:06.581Z,95095.00
2023-05-08T10:12:06.595Z,95095.00
2023-05-08T10:13:06.750Z,95095.00
2023-05-08T10:14:06.508Z,95093.00
2023-05-08T10:15:06.504Z,95095.00
2023-05-08T10:16:06.535Z,95095.00
2023-05-08T10:17:06.560Z,95099.00
2023-05-08T10:18:06.604Z,95093.00
2023-05-08T10:19:06.459Z,95095.00
2023-05-08T10:20:06.496Z,95099.00
2023-05-08T10:21:06.470Z,95095.00
2023-05-08T10:22:06.471Z,95097.00
2023-05-08T10:23:06.436Z,95095.00
2023-05-08T10:24:06.594Z,95095.00
2023-05-08T10:25:06.448Z,95093.00
2023-05-08T10:26:06.440Z,95095.00
2023-05-08T10:27:07.888Z,95093.00
2023-05-08T10:28:06.552Z,95088.00
2023-05-08T10:29:06.405Z,95088.00
2023-05-08T10:30:06.408Z,95089.00
2023-05-08T10:31:07.357Z,95084.00
2023-05-08T10:32:06.400Z,95080.00
2023-05-08T10:33:06.570Z,95082.00
2023-05-08T10:34:06.472Z,95078.00
2023-05-08T10:35:06.454Z,95080.00
2023-05-08T10:36:06.376Z,95080.00
2023-05-08T10:37:06.367Z,95076.00
2023-05-08T10:38:06.403Z,95078.00
2023-05-08T10:39:06.359Z,95074.00
2023-05-08T10:40:06.447Z,95072.00
2023-05-08T10:41:06.388Z,95070.00
2023-05-08T10:42:06.420Z,95072.00
2023-05-08T10:43:06.419Z,95070.00
2023-05-08T10:44:06.386Z,95076.00
2023-05-08T10:45:06.339Z,95072.00
2023-05-08T10:46:06.455Z,95072.00
2023-05-08T10:47:06.428Z,95072.00
2023-05-08T10:48:06.415Z,95072.00
2023-05-08T10:49:06.314Z,95066.00
2023-05-08T10:50:06.322Z,95064.00
2023-05-08T10:51:06.346Z,95064.00
2023-05-08T10:52:06.313Z,95062.00
2023-05-08T10:53:06.452Z,95062.00
2023-05-08T10:54:06.525Z,95060.00
2023-05-08T10:55:06.480Z,95060.00
2023-05-08T10:56:06.490Z,95056.00
2023-05-08T10:57:06.509Z,95054.00
2023-05-08T10:58:06.953Z,95054.00
2023-05-08T10:59:06.654Z,95050.00
2023-05-08T11:00:06.722Z,95050.00
2023-05-08T11:01:07.713Z,95050.00
2023-05-08T11:02:06.825Z,95048.00
2023-05-08T11:03:14.158Z,95046.00
2023-05-08T11:04:08.419Z,95044.00
2023-05-08T11:05:06.767Z,95044.00
2023-05-08T11:06:06.731Z,95040.00
2023-05-08T11:07:06.799Z,95042.00
2023-05-08T11:08:06.758Z,95044.00
2023-05-08T11:09:06.781Z,95042.00
2023-05-08T11:10:07.324Z,95040.00
2023-05-08T11:11:07.317Z,95036.00
2023-05-08T11:12:06.772Z,95038.00
2023-05-08T11:13:07.437Z,95034.00
2023-05-08T11:14:06.799Z,95034.00
2023-05-08T11:15:06.908Z,95031.00
2023-05-08T11:16:06.879Z,95025.00
2023-05-08T11:17:06.933Z,95027.00
2023-05-08T11:18:07.025Z,95019.00
2023-05-08T11:19:06.955Z,95021.00
2023-05-08T11:20:07.320Z,95017.00
2023-05-08T11:21:07.318Z,95017.00
2023-05-08T11:22:07.937Z,95019.00
2023-05-08T11:23:07.032Z,95015.00
2023-05-08T11:24:08.006Z,95013.00
2023-05-08T11:25:07.897Z,95009.00
2023-05-08T11:26:07.221Z,95015.00
2023-05-08T11:27:07.180Z,95009.00
2023-05-08T11:28:07.281Z,95009.00
2023-05-08T11:29:07.224Z,95007.00
2023-05-08T11:30:07.278Z,95007.00
2023-05-08T11:31:07.352Z,95007.00
2023-05-08T11:32:07.374Z,95007.00
2023-05-08T11:33:07.417Z,95003.00
2023-05-08T11:34:07.393Z,94999.00
2023-05-08T11:35:07.425Z,94999.00
2023-05-08T11:36:07.467Z,94999.00
2023-05-08T11:37:07.467Z,94997.00
2023-05-08T11:38:07.484Z,94993.00
2023-05-08T11:39:07.493Z,94997.00
2023-05-08T11:40:07.560Z,94991.00
2023-05-08T11:41:07.571Z,94991.00
2023-05-08T11:42:07.628Z,94993.00
2023-05-08T11:43:08.437Z,94995.00
2023-05-08T11:44:07.673Z,94995.00
2023-05-08T11:45:07.748Z,94993.00